sensor_id;sensor_type;location;lat;lon;timestamp;P1;P2;P0
60645;PMS5003;46462;32.608;-117.032;2023-04-25T00:00:43;5;5;
60645;PMS5003;46462;32.608;-117.032;2023-04-25T00:03:14;6;5;
60645;PMS5003;46462;32.608;-117.032;2023-04-25T00:05:45;6;6;
60645;PMS5003;46462;32.608;-117.032;2023-04-25T00:08:15;4;4;
60645;PMS5003;46462;32.608;-117.032;2023-04-25T00:10:46;3;3;
60645;PMS5003;46462;32.608;-117.032;2023-04-25T00:13:17;5;4;
60645;PMS5003;46462;32.608;-117.032;2023-04-25T00:15:48;5;5;
60645;PMS5003;46462;32.608;-117.032;2023-04-25T00:18:19;4;4;
60645;PMS5003;46462;32.608;-117.032;2023-04-25T00:20:49;3;3;
60645;PMS5003;46462;32.608;-117.032;2023-04-25T00:23:20;4;4;
60645;PMS5003;46462;32.608;-117.032;2023-04-25T00:25:50;5;5;
60645;PMS5003;46462;32.608;-117.032;2023-04-25T00:28:21;5;5;
60645;PMS5003;46462;32.608;-117.032;2023-04-25T00:30:52;3;3;
60645;PMS5003;46462;32.608;-117.032;2023-04-25T00:33:23;4;4;
60645;PMS5003;46462;32.608;-117.032;2023-04-25T00:35:53;5;5;
60645;PMS5003;46462;32.608;-117.032;2023-04-25T00:38:24;5;5;
60645;PMS5003;46462;32.608;-117.032;2023-04-25T00:40:55;4;4;
60645;PMS5003;46462;32.608;-117.032;2023-04-25T00:43:26;4;4;
60645;PMS5003;46462;32.608;-117.032;2023-04-25T00:45:56;4;4;
60645;PMS5003;46462;32.608;-117.032;2023-04-25T00:48:27;2;2;
60645;PMS5003;46462;32.608;-117.032;2023-04-25T00:50:58;5;5;
60645;PMS5003;46462;32.608;-117.032;2023-04-25T00:53:28;4;4;
60645;PMS5003;46462;32.608;-117.032;2023-04-25T00:55:59;5;5;
60645;PMS5003;46462;32.608;-117.032;2023-04-25T00:58:29;5;5;
60645;PMS5003;46462;32.608;-117.032;2023-04-25T01:01:00;4;4;
60645;PMS5003;46462;32.608;-117.032;2023-04-25T01:03:31;5;5;
60645;PMS5003;46462;32.608;-117.032;2023-04-25T01:06:02;3;3;
60645;PMS5003;46462;32.608;-117.032;2023-04-25T01:08:32;3;3;
60645;PMS5003;46462;32.608;-117.032;2023-04-25T01:11:03;4;4;
60645;PMS5003;46462;32.608;-117.032;2023-04-25T01:13:34;3;3;
60645;PMS5003;46462;32.608;-117.032;2023-04-25T01:16:05;5;5;
60645;PMS5003;46462;32.608;-117.032;2023-04-25T01:18:35;4;4;
60645;PMS5003;46462;32.608;-117.032;2023-04-25T01:21:07;4;4;
60645;PMS5003;46462;32.608;-117.032;2023-04-25T01:23:37;1;1;
60645;PMS5003;46462;32.608;-117.032;2023-04-25T01:26:07;5;5;
60645;PMS5003;46462;32.608;-117.032;2023-04-25T01:28:38;4;4;
60645;PMS5003;46462;32.608;-117.032;2023-04-25T01:31:09;3;3;
60645;PMS5003;46462;32.608;-117.032;2023-04-25T01:33:40;4;3;
60645;PMS5003;46462;32.608;-117.032;2023-04-25T01:36:10;3;3;
60645;PMS5003;46462;32.608;-117.032;2023-04-25T01:38:41;4;3;
60645;PMS5003;46462;32.608;-117.032;2023-04-25T01:41:11;3;3;
60645;PMS5003;46462;32.608;-117.032;2023-04-25T01:43:42;5;5;
60645;PMS5003;46462;32.608;-117.032;2023-04-25T01:46:13;4;4;
60645;PMS5003;46462;32.608;-117.032;2023-04-25T01:48:44;6;6;
60645;PMS5003;46462;32.608;-117.032;2023-04-25T01:51:14;4;4;
60645;PMS5003;46462;32.608;-117.032;2023-04-25T01:53:45;3;3;
60645;PMS5003;46462;32.608;-117.032;2023-04-25T01:56:16;5;5;
60645;PMS5003;46462;32.608;-117.032;2023-04-25T01:58:46;4;4;
60645;PMS5003;46462;32.608;-117.032;2023-04-25T02:01:17;2;2;
60645;PMS5003;46462;32.608;-117.032;2023-04-25T02:03:48;4;3;
60645;PMS5003;46462;32.608;-117.032;2023-04-25T02:06:18;3;3;
60645;PMS5003;46462;32.608;-117.032;2023-04-25T02:08:49;3;3;
60645;PMS5003;46462;32.608;-117.032;2023-04-25T02:11:20;4;4;
60645;PMS5003;46462;32.608;-117.032;2023-04-25T02:13:50;6;6;
60645;PMS5003;46462;32.608;-117.032;2023-04-25T02:16:21;5;4;
60645;PMS5003;46462;32.608;-117.032;2023-04-25T02:18:52;2;2;
60645;PMS5003;46462;32.608;-117.032;2023-04-25T02:21:23;4;3;
60645;PMS5003;46462;32.608;-117.032;2023-04-25T02:23:53;3;3;
60645;PMS5003;46462;32.608;-117.032;2023-04-25T02:26:24;4;4;
60645;PMS5003;46462;32.608;-117.032;2023-04-25T02:28:55;5;4;
60645;PMS5003;46462;32.608;-117.032;2023-04-25T02:31:25;4;4;
60645;PMS5003;46462;32.608;-117.032;2023-04-25T02:33:56;5;4;
60645;PMS5003;46462;32.608;-117.032;2023-04-25T02:36:27;3;3;
60645;PMS5003;46462;32.608;-117.032;2023-04-25T02:38:57;4;4;
60645;PMS5003;46462;32.608;-117.032;2023-04-25T02:41:28;6;4;
60645;PMS5003;46462;32.608;-117.032;2023-04-25T02:43:59;3;3;
60645;PMS5003;46462;32.608;-117.032;2023-04-25T02:46:29;8;6;
60645;PMS5003;46462;32.608;-117.032;2023-04-25T02:49:00;4;4;
60645;PMS5003;46462;32.608;-117.032;2023-04-25T02:51:30;6;6;
60645;PMS5003;46462;32.608;-117.032;2023-04-25T02:54:01;4;4;
60645;PMS5003;46462;32.608;-117.032;2023-04-25T02:56:32;5;5;
60645;PMS5003;46462;32.608;-117.032;2023-04-25T02:59:03;4;4;
60645;PMS5003;46462;32.608;-117.032;2023-04-25T03:01:33;4;4;
60645;PMS5003;46462;32.608;-117.032;2023-04-25T03:04:04;6;6;
60645;PMS5003;46462;32.608;-117.032;2023-04-25T03:06:35;5;5;
60645;PMS5003;46462;32.608;-117.032;2023-04-25T03:09:05;4;4;
60645;PMS5003;46462;32.608;-117.032;2023-04-25T03:11:38;6;5;
60645;PMS5003;46462;32.608;-117.032;2023-04-25T03:14:07;6;6;
60645;PMS5003;46462;32.608;-117.032;2023-04-25T03:16:38;5;5;
60645;PMS5003;46462;32.608;-117.032;2023-04-25T03:19:08;5;5;
60645;PMS5003;46462;32.608;-117.032;2023-04-25T03:21:39;2;2;
60645;PMS5003;46462;32.608;-117.032;2023-04-25T03:24:10;4;4;
60645;PMS5003;46462;32.608;-117.032;2023-04-25T03:26:40;6;6;
60645;PMS5003;46462;32.608;-117.032;2023-04-25T03:29:11;4;4;
60645;PMS5003;46462;32.608;-117.032;2023-04-25T03:31:42;5;5;
60645;PMS5003;46462;32.608;-117.032;2023-04-25T03:34:13;5;5;
60645;PMS5003;46462;32.608;-117.032;2023-04-25T03:36:43;6;5;
60645;PMS5003;46462;32.608;-117.032;2023-04-25T03:39:14;5;5;
60645;PMS5003;46462;32.608;-117.032;2023-04-25T03:41:45;4;4;
60645;PMS5003;46462;32.608;-117.032;2023-04-25T03:44:15;6;5;
60645;PMS5003;46462;32.608;-117.032;2023-04-25T03:46:46;6;6;
60645;PMS5003;46462;32.608;-117.032;2023-04-25T03:49:17;5;5;
60645;PMS5003;46462;32.608;-117.032;2023-04-25T03:51:47;5;5;
60645;PMS5003;46462;32.608;-117.032;2023-04-25T03:54:18;6;4;
60645;PMS5003;46462;32.608;-117.032;2023-04-25T03:56:49;4;4;
60645;PMS5003;46462;32.608;-117.032;2023-04-25T03:59:20;4;4;
60645;PMS5003;46462;32.608;-117.032;2023-04-25T04:01:50;5;4;
60645;PMS5003;46462;32.608;-117.032;2023-04-25T04:04:21;5;4;
60645;PMS5003;46462;32.608;-117.032;2023-04-25T04:06:52;6;6;
60645;PMS5003;46462;32.608;-117.032;2023-04-25T04:09:23;4;4;
60645;PMS5003;46462;32.608;-117.032;2023-04-25T04:11:53;3;3;
60645;PMS5003;46462;32.608;-117.032;2023-04-25T04:14:24;4;4;
60645;PMS5003;46462;32.608;-117.032;2023-04-25T04:16:55;5;5;
60645;PMS5003;46462;32.608;-117.032;2023-04-25T04:19:26;3;3;
60645;PMS5003;46462;32.608;-117.032;2023-04-25T04:21:56;5;5;
60645;PMS5003;46462;32.608;-117.032;2023-04-25T04:24:27;5;4;
60645;PMS5003;46462;32.608;-117.032;2023-04-25T04:26:57;5;5;
60645;PMS5003;46462;32.608;-117.032;2023-04-25T04:29:28;6;6;
60645;PMS5003;46462;32.608;-117.032;2023-04-25T04:31:59;5;5;
60645;PMS5003;46462;32.608;-117.032;2023-04-25T04:34:30;4;4;
60645;PMS5003;46462;32.608;-117.032;2023-04-25T04:37:00;4;4;
60645;PMS5003;46462;32.608;-117.032;2023-04-25T04:39:31;6;6;
60645;PMS5003;46462;32.608;-117.032;2023-04-25T04:42:02;5;5;
60645;PMS5003;46462;32.608;-117.032;2023-04-25T04:44:32;4;4;
60645;PMS5003;46462;32.608;-117.032;2023-04-25T04:47:03;5;4;
60645;PMS5003;46462;32.608;-117.032;2023-04-25T04:49:34;4;4;
60645;PMS5003;46462;32.608;-117.032;2023-04-25T04:52:05;3;3;
60645;PMS5003;46462;32.608;-117.032;2023-04-25T04:54:35;5;5;
60645;PMS5003;46462;32.608;-117.032;2023-04-25T04:57:06;4;4;
60645;PMS5003;46462;32.608;-117.032;2023-04-25T04:59:37;4;4;
60645;PMS5003;46462;32.608;-117.032;2023-04-25T05:02:08;5;5;
60645;PMS5003;46462;32.608;-117.032;2023-04-25T05:04:40;5;5;
60645;PMS5003;46462;32.608;-117.032;2023-04-25T05:07:09;4;4;
60645;PMS5003;46462;32.608;-117.032;2023-04-25T05:09:40;6;6;
60645;PMS5003;46462;32.608;-117.032;2023-04-25T05:12:10;5;4;
60645;PMS5003;46462;32.608;-117.032;2023-04-25T05:14:41;3;3;
60645;PMS5003;46462;32.608;-117.032;2023-04-25T05:17:12;5;5;
60645;PMS5003;46462;32.608;-117.032;2023-04-25T05:19:43;2;2;
60645;PMS5003;46462;32.608;-117.032;2023-04-25T05:22:13;4;4;
60645;PMS5003;46462;32.608;-117.032;2023-04-25T05:24:44;4;4;
60645;PMS5003;46462;32.608;-117.032;2023-04-25T05:27:16;4;4;
60645;PMS5003;46462;32.608;-117.032;2023-04-25T05:29:45;4;4;
60645;PMS5003;46462;32.608;-117.032;2023-04-25T05:32:17;5;5;
60645;PMS5003;46462;32.608;-117.032;2023-04-25T05:34:47;3;3;
60645;PMS5003;46462;32.608;-117.032;2023-04-25T05:37:18;5;5;
60645;PMS5003;46462;32.608;-117.032;2023-04-25T05:39:49;3;3;
60645;PMS5003;46462;32.608;-117.032;2023-04-25T05:42:19;3;3;
60645;PMS5003;46462;32.608;-117.032;2023-04-25T05:44:50;5;5;
60645;PMS5003;46462;32.608;-117.032;2023-04-25T05:47:21;4;3;
60645;PMS5003;46462;32.608;-117.032;2023-04-25T05:49:51;3;3;
60645;PMS5003;46462;32.608;-117.032;2023-04-25T05:52:22;6;5;
60645;PMS5003;46462;32.608;-117.032;2023-04-25T05:54:53;2;2;
60645;PMS5003;46462;32.608;-117.032;2023-04-25T05:57:24;5;5;
60645;PMS5003;46462;32.608;-117.032;2023-04-25T05:59:54;6;6;
60645;PMS5003;46462;32.608;-117.032;2023-04-25T06:02:27;4;4;
60645;PMS5003;46462;32.608;-117.032;2023-04-25T06:04:56;4;4;
60645;PMS5003;46462;32.608;-117.032;2023-04-25T06:07:26;4;4;
60645;PMS5003;46462;32.608;-117.032;2023-04-25T06:09:57;4;4;
60645;PMS5003;46462;32.608;-117.032;2023-04-25T06:12:28;4;4;
60645;PMS5003;46462;32.608;-117.032;2023-04-25T06:14:59;4;4;
60645;PMS5003;46462;32.608;-117.032;2023-04-25T06:17:29;6;5;
60645;PMS5003;46462;32.608;-117.032;2023-04-25T06:20:00;4;4;
60645;PMS5003;46462;32.608;-117.032;2023-04-25T06:22:31;5;4;
60645;PMS5003;46462;32.608;-117.032;2023-04-25T06:25:06;4;4;
60645;PMS5003;46462;32.608;-117.032;2023-04-25T06:27:36;4;4;
60645;PMS5003;46462;32.608;-117.032;2023-04-25T06:30:07;4;3;
60645;PMS5003;46462;32.608;-117.032;2023-04-25T06:32:37;5;5;
60645;PMS5003;46462;32.608;-117.032;2023-04-25T06:35:08;5;5;
60645;PMS5003;46462;32.608;-117.032;2023-04-25T06:37:38;5;5;
60645;PMS5003;46462;32.608;-117.032;2023-04-25T06:40:09;5;5;
60645;PMS5003;46462;32.608;-117.032;2023-04-25T06:42:40;4;4;
60645;PMS5003;46462;32.608;-117.032;2023-04-25T06:45:10;4;4;
60645;PMS5003;46462;32.608;-117.032;2023-04-25T06:47:41;3;3;
60645;PMS5003;46462;32.608;-117.032;2023-04-25T06:50:12;4;3;
60645;PMS5003;46462;32.608;-117.032;2023-04-25T06:52:43;3;3;
60645;PMS5003;46462;32.608;-117.032;2023-04-25T06:55:13;3;3;
60645;PMS5003;46462;32.608;-117.032;2023-04-25T06:57:44;5;5;
60645;PMS5003;46462;32.608;-117.032;2023-04-25T07:00:15;4;4;
60645;PMS5003;46462;32.608;-117.032;2023-04-25T07:02:46;5;5;
60645;PMS5003;46462;32.608;-117.032;2023-04-25T07:05:17;4;4;
60645;PMS5003;46462;32.608;-117.032;2023-04-25T07:07:47;3;3;
60645;PMS5003;46462;32.608;-117.032;2023-04-25T07:10:18;4;4;
60645;PMS5003;46462;32.608;-117.032;2023-04-25T07:12:48;4;4;
60645;PMS5003;46462;32.608;-117.032;2023-04-25T07:15:19;4;4;
60645;PMS5003;46462;32.608;-117.032;2023-04-25T07:17:50;4;4;
60645;PMS5003;46462;32.608;-117.032;2023-04-25T07:20:21;5;3;
60645;PMS5003;46462;32.608;-117.032;2023-04-25T07:22:51;3;3;
60645;PMS5003;46462;32.608;-117.032;2023-04-25T07:25:22;4;4;
60645;PMS5003;46462;32.608;-117.032;2023-04-25T07:27:53;4;4;
60645;PMS5003;46462;32.608;-117.032;2023-04-25T07:30:24;3;3;
60645;PMS5003;46462;32.608;-117.032;2023-04-25T07:32:54;4;4;
60645;PMS5003;46462;32.608;-117.032;2023-04-25T07:35:26;4;4;
60645;PMS5003;46462;32.608;-117.032;2023-04-25T07:37:56;2;2;
60645;PMS5003;46462;32.608;-117.032;2023-04-25T07:40:27;4;4;
60645;PMS5003;46462;32.608;-117.032;2023-04-25T07:42:57;6;5;
60645;PMS5003;46462;32.608;-117.032;2023-04-25T07:45:28;5;3;
60645;PMS5003;46462;32.608;-117.032;2023-04-25T07:47:59;5;5;
60645;PMS5003;46462;32.608;-117.032;2023-04-25T07:50:30;4;4;
60645;PMS5003;46462;32.608;-117.032;2023-04-25T07:53:00;3;3;
60645;PMS5003;46462;32.608;-117.032;2023-04-25T07:55:31;4;4;
60645;PMS5003;46462;32.608;-117.032;2023-04-25T07:58:02;5;5;
60645;PMS5003;46462;32.608;-117.032;2023-04-25T08:00:33;6;5;
60645;PMS5003;46462;32.608;-117.032;2023-04-25T08:03:03;4;4;
60645;PMS5003;46462;32.608;-117.032;2023-04-25T08:05:34;4;4;
60645;PMS5003;46462;32.608;-117.032;2023-04-25T08:08:05;4;4;
60645;PMS5003;46462;32.608;-117.032;2023-04-25T08:10:36;4;4;
60645;PMS5003;46462;32.608;-117.032;2023-04-25T08:13:06;4;4;
60645;PMS5003;46462;32.608;-117.032;2023-04-25T08:15:37;4;4;
60645;PMS5003;46462;32.608;-117.032;2023-04-25T08:18:08;3;3;
60645;PMS5003;46462;32.608;-117.032;2023-04-25T08:20:39;4;4;
60645;PMS5003;46462;32.608;-117.032;2023-04-25T08:23:09;3;3;
60645;PMS5003;46462;32.608;-117.032;2023-04-25T08:25:40;3;2;
60645;PMS5003;46462;32.608;-117.032;2023-04-25T08:28:11;4;4;
60645;PMS5003;46462;32.608;-117.032;2023-04-25T08:30:41;4;4;
60645;PMS5003;46462;32.608;-117.032;2023-04-25T08:33:12;6;6;
60645;PMS5003;46462;32.608;-117.032;2023-04-25T08:35:44;5;5;
60645;PMS5003;46462;32.608;-117.032;2023-04-25T08:38:14;3;3;
60645;PMS5003;46462;32.608;-117.032;2023-04-25T08:40:44;5;5;
60645;PMS5003;46462;32.608;-117.032;2023-04-25T08:43:15;4;4;
60645;PMS5003;46462;32.608;-117.032;2023-04-25T08:45:46;4;3;
60645;PMS5003;46462;32.608;-117.032;2023-04-25T08:48:17;3;3;
60645;PMS5003;46462;32.608;-117.032;2023-04-25T08:50:49;7;5;
60645;PMS5003;46462;32.608;-117.032;2023-04-25T08:53:20;6;6;
60645;PMS5003;46462;32.608;-117.032;2023-04-25T08:55:49;4;4;
60645;PMS5003;46462;32.608;-117.032;2023-04-25T08:58:20;5;4;
60645;PMS5003;46462;32.608;-117.032;2023-04-25T09:00:51;6;6;
60645;PMS5003;46462;32.608;-117.032;2023-04-25T09:03:21;4;4;
60645;PMS5003;46462;32.608;-117.032;2023-04-25T09:05:52;4;4;
60645;PMS5003;46462;32.608;-117.032;2023-04-25T09:08:23;4;4;
60645;PMS5003;46462;32.608;-117.032;2023-04-25T09:10:53;6;6;
60645;PMS5003;46462;32.608;-117.032;2023-04-25T09:13:25;5;5;
60645;PMS5003;46462;32.608;-117.032;2023-04-25T09:15:55;6;5;
60645;PMS5003;46462;32.608;-117.032;2023-04-25T09:18:26;4;4;
60645;PMS5003;46462;32.608;-117.032;2023-04-25T09:20:58;3;3;
60645;PMS5003;46462;32.608;-117.032;2023-04-25T09:23:27;5;5;
60645;PMS5003;46462;32.608;-117.032;2023-04-25T09:25:58;4;4;
60645;PMS5003;46462;32.608;-117.032;2023-04-25T09:28:29;6;6;
60645;PMS5003;46462;32.608;-117.032;2023-04-25T09:30:59;5;5;
60645;PMS5003;46462;32.608;-117.032;2023-04-25T09:33:31;5;5;
60645;PMS5003;46462;32.608;-117.032;2023-04-25T09:36:02;4;4;
60645;PMS5003;46462;32.608;-117.032;2023-04-25T09:38:32;4;4;
60645;PMS5003;46462;32.608;-117.032;2023-04-25T09:41:02;3;3;
60645;PMS5003;46462;32.608;-117.032;2023-04-25T09:43:33;5;5;
60645;PMS5003;46462;32.608;-117.032;2023-04-25T09:46:07;4;4;
60645;PMS5003;46462;32.608;-117.032;2023-04-25T09:48:35;7;5;
60645;PMS5003;46462;32.608;-117.032;2023-04-25T09:51:06;4;4;
60645;PMS5003;46462;32.608;-117.032;2023-04-25T09:53:37;5;4;
60645;PMS5003;46462;32.608;-117.032;2023-04-25T09:56:07;6;6;
60645;PMS5003;46462;32.608;-117.032;2023-04-25T09:58:38;4;4;
60645;PMS5003;46462;32.608;-117.032;2023-04-25T10:01:09;4;4;
60645;PMS5003;46462;32.608;-117.032;2023-04-25T10:03:39;5;4;
60645;PMS5003;46462;32.608;-117.032;2023-04-25T10:06:12;5;5;
60645;PMS5003;46462;32.608;-117.032;2023-04-25T10:08:40;6;6;
60645;PMS5003;46462;32.608;-117.032;2023-04-25T10:11:11;4;4;
60645;PMS5003;46462;32.608;-117.032;2023-04-25T10:13:42;5;5;
60645;PMS5003;46462;32.608;-117.032;2023-04-25T10:16:13;7;6;
60645;PMS5003;46462;32.608;-117.032;2023-04-25T10:18:44;4;4;
60645;PMS5003;46462;32.608;-117.032;2023-04-25T10:21:15;6;6;
60645;PMS5003;46462;32.608;-117.032;2023-04-25T10:23:45;4;4;
60645;PMS5003;46462;32.608;-117.032;2023-04-25T10:26:16;6;6;
60645;PMS5003;46462;32.608;-117.032;2023-04-25T10:31:17;6;5;
60645;PMS5003;46462;32.608;-117.032;2023-04-25T10:33:48;6;6;
60645;PMS5003;46462;32.608;-117.032;2023-04-25T10:36:20;4;4;
60645;PMS5003;46462;32.608;-117.032;2023-04-25T10:38:50;4;4;
60645;PMS5003;46462;32.608;-117.032;2023-04-25T10:41:21;5;5;
60645;PMS5003;46462;32.608;-117.032;2023-04-25T10:43:58;3;3;
60645;PMS5003;46462;32.608;-117.032;2023-04-25T10:46:22;6;6;
60645;PMS5003;46462;32.608;-117.032;2023-04-25T10:48:53;5;5;
60645;PMS5003;46462;32.608;-117.032;2023-04-25T10:51:24;5;5;
60645;PMS5003;46462;32.608;-117.032;2023-04-25T10:53:58;4;3;
60645;PMS5003;46462;32.608;-117.032;2023-04-25T10:56:25;5;5;
60645;PMS5003;46462;32.608;-117.032;2023-04-25T11:01:26;5;5;
60645;PMS5003;46462;32.608;-117.032;2023-04-25T11:03:57;6;6;
60645;PMS5003;46462;32.608;-117.032;2023-04-25T11:06:29;6;5;
60645;PMS5003;46462;32.608;-117.032;2023-04-25T11:08:59;8;7;
60645;PMS5003;46462;32.608;-117.032;2023-04-25T11:11:29;6;6;
60645;PMS5003;46462;32.608;-117.032;2023-04-25T11:14:00;7;6;
60645;PMS5003;46462;32.608;-117.032;2023-04-25T11:16:31;8;8;
60645;PMS5003;46462;32.608;-117.032;2023-04-25T11:19:01;7;7;
60645;PMS5003;46462;32.608;-117.032;2023-04-25T11:21:32;5;5;
60645;PMS5003;46462;32.608;-117.032;2023-04-25T11:24:03;7;6;
60645;PMS5003;46462;32.608;-117.032;2023-04-25T11:26:34;7;7;
60645;PMS5003;46462;32.608;-117.032;2023-04-25T11:29:04;5;5;
60645;PMS5003;46462;32.608;-117.032;2023-04-25T11:31:35;7;7;
60645;PMS5003;46462;32.608;-117.032;2023-04-25T11:34:06;5;5;
60645;PMS5003;46462;32.608;-117.032;2023-04-25T11:36:37;8;6;
60645;PMS5003;46462;32.608;-117.032;2023-04-25T11:39:07;6;6;
60645;PMS5003;46462;32.608;-117.032;2023-04-25T11:41:38;6;6;
60645;PMS5003;46462;32.608;-117.032;2023-04-25T11:44:09;6;6;
60645;PMS5003;46462;32.608;-117.032;2023-04-25T11:46:40;8;8;
60645;PMS5003;46462;32.608;-117.032;2023-04-25T11:49:11;7;7;
60645;PMS5003;46462;32.608;-117.032;2023-04-25T11:51:42;7;7;
60645;PMS5003;46462;32.608;-117.032;2023-04-25T11:54:12;6;6;
60645;PMS5003;46462;32.608;-117.032;2023-04-25T11:56:43;7;7;
60645;PMS5003;46462;32.608;-117.032;2023-04-25T11:59:13;9;9;
60645;PMS5003;46462;32.608;-117.032;2023-04-25T12:01:48;6;6;
60645;PMS5003;46462;32.608;-117.032;2023-04-25T12:04:16;6;6;
60645;PMS5003;46462;32.608;-117.032;2023-04-25T12:06:47;5;5;
60645;PMS5003;46462;32.608;-117.032;2023-04-25T12:09:17;7;7;
60645;PMS5003;46462;32.608;-117.032;2023-04-25T12:11:48;7;6;
60645;PMS5003;46462;32.608;-117.032;2023-04-25T12:14:21;6;6;
60645;PMS5003;46462;32.608;-117.032;2023-04-25T12:16:49;5;5;
60645;PMS5003;46462;32.608;-117.032;2023-04-25T12:19:19;7;6;
60645;PMS5003;46462;32.608;-117.032;2023-04-25T12:21:50;6;6;
60645;PMS5003;46462;32.608;-117.032;2023-04-25T12:24:21;6;6;
60645;PMS5003;46462;32.608;-117.032;2023-04-25T12:26:52;7;6;
60645;PMS5003;46462;32.608;-117.032;2023-04-25T12:29:23;6;6;
60645;PMS5003;46462;32.608;-117.032;2023-04-25T12:31:54;6;6;
60645;PMS5003;46462;32.608;-117.032;2023-04-25T12:34:24;10;8;
60645;PMS5003;46462;32.608;-117.032;2023-04-25T12:36:55;6;6;
60645;PMS5003;46462;32.608;-117.032;2023-04-25T12:39:25;7;6;
60645;PMS5003;46462;32.608;-117.032;2023-04-25T12:41:56;5;5;
60645;PMS5003;46462;32.608;-117.032;2023-04-25T12:44:27;9;8;
60645;PMS5003;46462;32.608;-117.032;2023-04-25T12:46:58;6;6;
60645;PMS5003;46462;32.608;-117.032;2023-04-25T12:49:28;8;8;
60645;PMS5003;46462;32.608;-117.032;2023-04-25T12:51:59;6;6;
60645;PMS5003;46462;32.608;-117.032;2023-04-25T12:54:30;7;7;
60645;PMS5003;46462;32.608;-117.032;2023-04-25T12:57:01;6;6;
60645;PMS5003;46462;32.608;-117.032;2023-04-25T12:59:31;5;5;
60645;PMS5003;46462;32.608;-117.032;2023-04-25T13:02:02;6;6;
60645;PMS5003;46462;32.608;-117.032;2023-04-25T13:04:33;7;7;
60645;PMS5003;46462;32.608;-117.032;2023-04-25T13:07:04;6;6;
60645;PMS5003;46462;32.608;-117.032;2023-04-25T13:09:34;6;6;
60645;PMS5003;46462;32.608;-117.032;2023-04-25T13:12:05;9;7;
60645;PMS5003;46462;32.608;-117.032;2023-04-25T13:14:36;7;7;
60645;PMS5003;46462;32.608;-117.032;2023-04-25T13:17:06;7;7;
60645;PMS5003;46462;32.608;-117.032;2023-04-25T13:19:37;6;5;
60645;PMS5003;46462;32.608;-117.032;2023-04-25T13:22:08;5;5;
60645;PMS5003;46462;32.608;-117.032;2023-04-25T13:24:39;8;7;
60645;PMS5003;46462;32.608;-117.032;2023-04-25T13:27:09;7;7;
60645;PMS5003;46462;32.608;-117.032;2023-04-25T13:29:40;7;6;
60645;PMS5003;46462;32.608;-117.032;2023-04-25T13:32:11;7;7;
60645;PMS5003;46462;32.608;-117.032;2023-04-25T13:34:42;6;6;
60645;PMS5003;46462;32.608;-117.032;2023-04-25T13:37:13;7;6;
60645;PMS5003;46462;32.608;-117.032;2023-04-25T13:39:43;6;6;
60645;PMS5003;46462;32.608;-117.032;2023-04-25T13:42:14;6;6;
60645;PMS5003;46462;32.608;-117.032;2023-04-25T13:44:45;7;7;
60645;PMS5003;46462;32.608;-117.032;2023-04-25T13:47:16;6;6;
60645;PMS5003;46462;32.608;-117.032;2023-04-25T13:49:46;6;6;
60645;PMS5003;46462;32.608;-117.032;2023-04-25T13:52:17;6;6;
60645;PMS5003;46462;32.608;-117.032;2023-04-25T13:54:48;5;4;
60645;PMS5003;46462;32.608;-117.032;2023-04-25T13:57:19;6;6;
60645;PMS5003;46462;32.608;-117.032;2023-04-25T13:59:50;6;6;
60645;PMS5003;46462;32.608;-117.032;2023-04-25T14:02:20;8;7;
60645;PMS5003;46462;32.608;-117.032;2023-04-25T14:04:51;9;9;
60645;PMS5003;46462;32.608;-117.032;2023-04-25T14:07:22;10;9;
60645;PMS5003;46462;32.608;-117.032;2023-04-25T14:09:53;11;11;
60645;PMS5003;46462;32.608;-117.032;2023-04-25T14:12:23;12;11;
60645;PMS5003;46462;32.608;-117.032;2023-04-25T14:14:54;11;11;
60645;PMS5003;46462;32.608;-117.032;2023-04-25T14:17:25;9;9;
60645;PMS5003;46462;32.608;-117.032;2023-04-25T14:19:55;14;13;
60645;PMS5003;46462;32.608;-117.032;2023-04-25T14:22:26;10;10;
60645;PMS5003;46462;32.608;-117.032;2023-04-25T14:24:57;12;11;
60645;PMS5003;46462;32.608;-117.032;2023-04-25T14:27:28;13;12;
60645;PMS5003;46462;32.608;-117.032;2023-04-25T14:29:59;14;13;
60645;PMS5003;46462;32.608;-117.032;2023-04-25T14:32:29;14;13;
60645;PMS5003;46462;32.608;-117.032;2023-04-25T14:35:01;15;14;
60645;PMS5003;46462;32.608;-117.032;2023-04-25T14:37:31;19;18;
60645;PMS5003;46462;32.608;-117.032;2023-04-25T14:40:07;15;15;
60645;PMS5003;46462;32.608;-117.032;2023-04-25T14:42:36;23;22;
60645;PMS5003;46462;32.608;-117.032;2023-04-25T14:45:07;16;16;
60645;PMS5003;46462;32.608;-117.032;2023-04-25T14:47:37;15;14;
60645;PMS5003;46462;32.608;-117.032;2023-04-25T14:50:08;18;17;
60645;PMS5003;46462;32.608;-117.032;2023-04-25T14:52:38;16;15;
60645;PMS5003;46462;32.608;-117.032;2023-04-25T14:55:09;18;18;
60645;PMS5003;46462;32.608;-117.032;2023-04-25T14:57:40;17;17;
60645;PMS5003;46462;32.608;-117.032;2023-04-25T15:00:10;16;15;
60645;PMS5003;46462;32.608;-117.032;2023-04-25T15:02:41;15;14;
60645;PMS5003;46462;32.608;-117.032;2023-04-25T15:05:11;18;16;
60645;PMS5003;46462;32.608;-117.032;2023-04-25T15:07:42;16;16;
60645;PMS5003;46462;32.608;-117.032;2023-04-25T15:10:13;15;15;
60645;PMS5003;46462;32.608;-117.032;2023-04-25T15:12:44;15;13;
60645;PMS5003;46462;32.608;-117.032;2023-04-25T15:15:14;11;11;
60645;PMS5003;46462;32.608;-117.032;2023-04-25T15:17:45;17;17;
60645;PMS5003;46462;32.608;-117.032;2023-04-25T15:20:16;14;14;
60645;PMS5003;46462;32.608;-117.032;2023-04-25T15:22:47;16;16;
60645;PMS5003;46462;32.608;-117.032;2023-04-25T15:25:18;14;14;
60645;PMS5003;46462;32.608;-117.032;2023-04-25T15:27:48;18;17;
60645;PMS5003;46462;32.608;-117.032;2023-04-25T15:30:20;17;16;
60645;PMS5003;46462;32.608;-117.032;2023-04-25T15:32:49;16;16;
60645;PMS5003;46462;32.608;-117.032;2023-04-25T15:35:20;15;15;
60645;PMS5003;46462;32.608;-117.032;2023-04-25T15:37:51;19;19;
60645;PMS5003;46462;32.608;-117.032;2023-04-25T15:40:22;18;16;
60645;PMS5003;46462;32.608;-117.032;2023-04-25T15:42:52;18;17;
60645;PMS5003;46462;32.608;-117.032;2023-04-25T15:45:23;19;18;
60645;PMS5003;46462;32.608;-117.032;2023-04-25T15:47:54;20;19;
60645;PMS5003;46462;32.608;-117.032;2023-04-25T15:50:24;21;19;
60645;PMS5003;46462;32.608;-117.032;2023-04-25T15:52:54;24;22;
60645;PMS5003;46462;32.608;-117.032;2023-04-25T15:55:25;20;19;
60645;PMS5003;46462;32.608;-117.032;2023-04-25T15:57:55;20;19;
60645;PMS5003;46462;32.608;-117.032;2023-04-25T16:02:57;18;17;
60645;PMS5003;46462;32.608;-117.032;2023-04-25T16:05:27;17;17;
60645;PMS5003;46462;32.608;-117.032;2023-04-25T16:07:58;17;17;
60645;PMS5003;46462;32.608;-117.032;2023-04-25T16:10:29;18;18;
60645;PMS5003;46462;32.608;-117.032;2023-04-25T16:12:59;18;17;
60645;PMS5003;46462;32.608;-117.032;2023-04-25T16:15:30;17;16;
60645;PMS5003;46462;32.608;-117.032;2023-04-25T16:18:01;18;17;
60645;PMS5003;46462;32.608;-117.032;2023-04-25T16:20:31;19;18;
60645;PMS5003;46462;32.608;-117.032;2023-04-25T16:23:02;18;17;
60645;PMS5003;46462;32.608;-117.032;2023-04-25T16:25:32;18;18;